sensor_id;sensor_type;location;lat;lon;timestamp;pressure;altitude;pressure_sealevel;temperature;humidity
82887;BME280;72660;51.258;-2.200;2024-03-02T00:02:05;98024.94;;;3.30;56.43
82887;BME280;72660;51.258;-2.200;2024-03-02T00:04:30;98021.19;;;4.16;55.51
82887;BME280;72660;51.258;-2.200;2024-03-02T00:06:55;98021.70;;;3.92;55.54
82887;BME280;72660;51.258;-2.200;2024-03-02T00:09:20;98021.15;;;3.86;54.75
82887;BME280;72660;51.258;-2.200;2024-03-02T00:11:46;98021.95;;;4.22;54.00
82887;BME280;72660;51.258;-2.200;2024-03-02T00:14:12;98017.46;;;4.23;54.66
82887;BME280;72660;51.258;-2.200;2024-03-02T00:16:37;98016.67;;;3.76;55.52
82887;BME280;72660;51.258;-2.200;2024-03-02T00:19:03;98014.10;;;3.96;54.77
82887;BME280;72660;51.258;-2.200;2024-03-02T00:21:30;98010.48;;;3.57;55.94
82887;BME280;72660;51.258;-2.200;2024-03-02T00:23:53;98010.20;;;4.48;54.58
82887;BME280;72660;51.258;-2.200;2024-03-02T00:26:19;98010.19;;;4.29;54.73
82887;BME280;72660;51.258;-2.200;2024-03-02T00:28:44;98014.20;;;4.11;55.24
82887;BME280;72660;51.258;-2.200;2024-03-02T00:31:11;98011.32;;;4.29;55.62
82887;BME280;72660;51.258;-2.200;2024-03-02T00:33:36;98005.75;;;4.00;55.32
82887;BME280;72660;51.258;-2.200;2024-03-02T00:36:01;98007.62;;;4.26;55.07
82887;BME280;72660;51.258;-2.200;2024-03-02T00:38:26;98008.19;;;3.79;55.94
82887;BME280;72660;51.258;-2.200;2024-03-02T00:40:51;98007.09;;;4.99;53.73
82887;BME280;72660;51.258;-2.200;2024-03-02T00:45:42;98005.44;;;4.74;53.93
82887;BME280;72660;51.258;-2.200;2024-03-02T00:48:08;98000.57;;;4.63;53.78
82887;BME280;72660;51.258;-2.200;2024-03-02T00:50:33;98000.34;;;4.62;54.10
82887;BME280;72660;51.258;-2.200;2024-03-02T00:52:58;98001.09;;;5.11;53.36
82887;BME280;72660;51.258;-2.200;2024-03-02T00:55:24;97997.92;;;4.56;53.42
82887;BME280;72660;51.258;-2.200;2024-03-02T00:57:49;97998.89;;;4.58;53.41
82887;BME280;72660;51.258;-2.200;2024-03-02T01:00:15;97996.51;;;3.72;54.90
82887;BME280;72660;51.258;-2.200;2024-03-02T01:02:40;97997.54;;;4.60;54.31
82887;BME280;72660;51.258;-2.200;2024-03-02T01:05:06;97995.59;;;4.87;54.05
82887;BME280;72660;51.258;-2.200;2024-03-02T01:07:31;97991.43;;;4.48;54.28
82887;BME280;72660;51.258;-2.200;2024-03-02T01:09:56;97989.19;;;5.12;53.22
82887;BME280;72660;51.258;-2.200;2024-03-02T01:12:22;97986.30;;;4.94;53.45
82887;BME280;72660;51.258;-2.200;2024-03-02T01:14:47;97988.11;;;4.67;53.37
82887;BME280;72660;51.258;-2.200;2024-03-02T01:17:13;97993.30;;;5.03;52.65
82887;BME280;72660;51.258;-2.200;2024-03-02T01:19:38;97993.48;;;5.11;53.16
82887;BME280;72660;51.258;-2.200;2024-03-02T01:22:04;97994.34;;;4.90;53.04
82887;BME280;72660;51.258;-2.200;2024-03-02T01:24:29;97988.37;;;5.00;52.77
82887;BME280;72660;51.258;-2.200;2024-03-02T01:26:54;97989.80;;;5.51;52.13
82887;BME280;72660;51.258;-2.200;2024-03-02T01:29:20;97983.19;;;5.64;52.02
82887;BME280;72660;51.258;-2.200;2024-03-02T01:31:45;97982.75;;;5.97;50.98
82887;BME280;72660;51.258;-2.200;2024-03-02T01:34:11;97977.15;;;6.00;50.14
82887;BME280;72660;51.258;-2.200;2024-03-02T01:36:36;97976.29;;;6.35;49.91
82887;BME280;72660;51.258;-2.200;2024-03-02T01:39:02;97975.85;;;6.26;50.37
82887;BME280;72660;51.258;-2.200;2024-03-02T01:41:27;97970.24;;;5.70;50.83
82887;BME280;72660;51.258;-2.200;2024-03-02T01:43:53;97971.69;;;6.08;50.33
82887;BME280;72660;51.258;-2.200;2024-03-02T01:46:18;97976.52;;;5.80;50.97
82887;BME280;72660;51.258;-2.200;2024-03-02T01:48:43;97981.07;;;6.27;50.76
82887;BME280;72660;51.258;-2.200;2024-03-02T01:51:09;97985.11;;;4.93;52.64
82887;BME280;72660;51.258;-2.200;2024-03-02T01:53:34;97979.71;;;5.85;51.71
82887;BME280;72660;51.258;-2.200;2024-03-02T01:56:00;97982.86;;;5.48;52.95
82887;BME280;72660;51.258;-2.200;2024-03-02T01:58:25;97974.09;;;5.44;52.38
82887;BME280;72660;51.258;-2.200;2024-03-02T02:00:50;97973.50;;;5.72;52.81
82887;BME280;72660;51.258;-2.200;2024-03-02T02:03:16;97977.39;;;6.47;51.63
82887;BME280;72660;51.258;-2.200;2024-03-02T02:05:42;97977.53;;;6.30;51.08
82887;BME280;72660;51.258;-2.200;2024-03-02T02:08:07;97969.28;;;5.67;51.80
82887;BME280;72660;51.258;-2.200;2024-03-02T02:10:32;97962.75;;;5.78;52.18
82887;BME280;72660;51.258;-2.200;2024-03-02T02:12:58;97964.85;;;4.41;55.60
82887;BME280;72660;51.258;-2.200;2024-03-02T02:15:25;97960.04;;;4.80;54.54
82887;BME280;72660;51.258;-2.200;2024-03-02T02:17:49;97953.45;;;4.63;55.29
82887;BME280;72660;51.258;-2.200;2024-03-02T02:20:14;97952.90;;;4.33;55.67
82887;BME280;72660;51.258;-2.200;2024-03-02T02:22:39;97952.42;;;4.74;55.05
82887;BME280;72660;51.258;-2.200;2024-03-02T02:25:06;97947.88;;;5.26;54.41
82887;BME280;72660;51.258;-2.200;2024-03-02T02:27:30;97951.86;;;4.13;55.20
82887;BME280;72660;51.258;-2.200;2024-03-02T02:29:56;97951.03;;;4.50;54.23
82887;BME280;72660;51.258;-2.200;2024-03-02T02:32:21;97946.39;;;5.22;53.91
82887;BME280;72660;51.258;-2.200;2024-03-02T02:34:47;97941.82;;;5.66;52.12
82887;BME280;72660;51.258;-2.200;2024-03-02T02:37:12;97937.16;;;5.31;52.26
82887;BME280;72660;51.258;-2.200;2024-03-02T02:39:38;97933.18;;;5.36;52.37
82887;BME280;72660;51.258;-2.200;2024-03-02T02:42:03;97931.59;;;5.97;50.82
82887;BME280;72660;51.258;-2.200;2024-03-02T02:44:28;97924.08;;;6.27;50.25
82887;BME280;72660;51.258;-2.200;2024-03-02T02:46:54;97920.37;;;6.53;49.67
82887;BME280;72660;51.258;-2.200;2024-03-02T02:49:19;97917.14;;;6.66;48.94
82887;BME280;72660;51.258;-2.200;2024-03-02T02:51:45;97917.18;;;6.52;49.20
82887;BME280;72660;51.258;-2.200;2024-03-02T02:54:10;97919.26;;;6.43;48.98
82887;BME280;72660;51.258;-2.200;2024-03-02T02:56:36;97914.53;;;6.07;48.76
82887;BME280;72660;51.258;-2.200;2024-03-02T02:59:01;97907.51;;;5.27;48.90
82887;BME280;72660;51.258;-2.200;2024-03-02T03:01:26;97903.81;;;5.49;48.41
82887;BME280;72660;51.258;-2.200;2024-03-02T03:03:52;97898.16;;;5.90;47.90
82887;BME280;72660;51.258;-2.200;2024-03-02T03:06:17;97887.20;;;6.00;47.25
82887;BME280;72660;51.258;-2.200;2024-03-02T03:08:43;97883.21;;;5.89;46.50
82887;BME280;72660;51.258;-2.200;2024-03-02T03:11:08;97873.92;;;6.17;46.22
82887;BME280;72660;51.258;-2.200;2024-03-02T03:13:34;97872.57;;;6.28;45.55
82887;BME280;72660;51.258;-2.200;2024-03-02T03:15:59;97867.28;;;6.44;45.49
82887;BME280;72660;51.258;-2.200;2024-03-02T03:18:24;97868.05;;;6.58;45.28
82887;BME280;72660;51.258;-2.200;2024-03-02T03:20:50;97860.54;;;6.74;45.01
82887;BME280;72660;51.258;-2.200;2024-03-02T03:23:15;97852.87;;;6.45;44.99
82887;BME280;72660;51.258;-2.200;2024-03-02T03:25:41;97852.17;;;5.76;45.59
82887;BME280;72660;51.258;-2.200;2024-03-02T03:28:06;97852.04;;;6.30;44.91
82887;BME280;72660;51.258;-2.200;2024-03-02T03:30:31;97846.57;;;5.54;45.26
82887;BME280;72660;51.258;-2.200;2024-03-02T03:32:57;97846.02;;;4.97;46.16
82887;BME280;72660;51.258;-2.200;2024-03-02T03:35:22;97843.38;;;4.00;47.46
82887;BME280;72660;51.258;-2.200;2024-03-02T03:37:48;97836.95;;;4.82;46.73
82887;BME280;72660;51.258;-2.200;2024-03-02T03:40:14;97835.12;;;4.67;46.97
82887;BME280;72660;51.258;-2.200;2024-03-02T03:42:39;97834.73;;;5.28;46.04
82887;BME280;72660;51.258;-2.200;2024-03-02T03:45:05;97838.39;;;5.17;46.27
82887;BME280;72660;51.258;-2.200;2024-03-02T03:47:31;97835.73;;;5.23;46.14
82887;BME280;72660;51.258;-2.200;2024-03-02T03:49:55;97831.60;;;4.96;46.39
82887;BME280;72660;51.258;-2.200;2024-03-02T03:52:20;97829.46;;;5.13;45.97
82887;BME280;72660;51.258;-2.200;2024-03-02T03:54:46;97828.94;;;5.21;45.86
82887;BME280;72660;51.258;-2.200;2024-03-02T03:57:12;97825.68;;;5.28;45.57
82887;BME280;72660;51.258;-2.200;2024-03-02T03:59:37;97820.32;;;4.30;47.13
82887;BME280;72660;51.258;-2.200;2024-03-02T04:02:02;97821.50;;;4.35;47.06
82887;BME280;72660;51.258;-2.200;2024-03-02T04:04:28;97822.49;;;4.48;47.35
82887;BME280;72660;51.258;-2.200;2024-03-02T04:06:53;97822.38;;;4.45;47.59
82887;BME280;72660;51.258;-2.200;2024-03-02T04:09:18;97827.52;;;4.52;47.58
82887;BME280;72660;51.258;-2.200;2024-03-02T04:11:44;97821.91;;;4.48;47.29
82887;BME280;72660;51.258;-2.200;2024-03-02T04:14:09;97818.23;;;4.11;47.74
82887;BME280;72660;51.258;-2.200;2024-03-02T04:16:35;97812.03;;;3.85;48.24
82887;BME280;72660;51.258;-2.200;2024-03-02T04:19:00;97805.35;;;3.57;48.33
82887;BME280;72660;51.258;-2.200;2024-03-02T04:21:26;97806.00;;;3.98;48.49
82887;BME280;72660;51.258;-2.200;2024-03-02T04:23:51;97806.51;;;4.36;48.07
82887;BME280;72660;51.258;-2.200;2024-03-02T04:26:17;97803.70;;;4.02;48.57
82887;BME280;72660;51.258;-2.200;2024-03-02T04:28:42;97804.93;;;4.21;48.14
82887;BME280;72660;51.258;-2.200;2024-03-02T04:31:07;97811.08;;;4.00;48.77
82887;BME280;72660;51.258;-2.200;2024-03-02T04:33:33;97809.71;;;4.73;47.31
82887;BME280;72660;51.258;-2.200;2024-03-02T04:35:59;97807.49;;;4.15;48.10
82887;BME280;72660;51.258;-2.200;2024-03-02T04:38:24;97806.69;;;4.06;48.41
82887;BME280;72660;51.258;-2.200;2024-03-02T04:40:49;97811.62;;;4.08;48.74
82887;BME280;72660;51.258;-2.200;2024-03-02T04:43:15;97811.46;;;3.95;49.16
82887;BME280;72660;51.258;-2.200;2024-03-02T04:45:40;97814.59;;;3.99;48.57
82887;BME280;72660;51.258;-2.200;2024-03-02T04:48:07;97816.16;;;4.08;49.09
82887;BME280;72660;51.258;-2.200;2024-03-02T04:50:31;97822.44;;;3.21;49.86
82887;BME280;72660;51.258;-2.200;2024-03-02T04:52:57;97827.65;;;3.47;50.04
82887;BME280;72660;51.258;-2.200;2024-03-02T04:55:22;97836.98;;;4.07;48.88
82887;BME280;72660;51.258;-2.200;2024-03-02T04:57:48;97839.51;;;4.48;48.17
82887;BME280;72660;51.258;-2.200;2024-03-02T05:00:14;97841.26;;;4.64;47.73
82887;BME280;72660;51.258;-2.200;2024-03-02T05:02:39;97845.35;;;4.56;47.88
82887;BME280;72660;51.258;-2.200;2024-03-02T05:05:05;97849.89;;;4.77;47.76
82887;BME280;72660;51.258;-2.200;2024-03-02T05:07:30;97851.99;;;4.42;47.32
82887;BME280;72660;51.258;-2.200;2024-03-02T05:09:55;97851.82;;;4.33;47.41
82887;BME280;72660;51.258;-2.200;2024-03-02T05:12:21;97852.46;;;4.71;46.91
82887;BME280;72660;51.258;-2.200;2024-03-02T05:14:46;97855.85;;;4.60;47.02
82887;BME280;72660;51.258;-2.200;2024-03-02T05:17:12;97857.11;;;5.26;46.72
82887;BME280;72660;51.258;-2.200;2024-03-02T05:19:37;97857.53;;;4.67;46.68
82887;BME280;72660;51.258;-2.200;2024-03-02T05:22:02;97857.63;;;5.02;46.54
82887;BME280;72660;51.258;-2.200;2024-03-02T05:24:28;97859.84;;;4.91;46.76
82887;BME280;72660;51.258;-2.200;2024-03-02T05:26:53;97858.33;;;4.95;46.30
82887;BME280;72660;51.258;-2.200;2024-03-02T05:29:19;97859.80;;;5.04;46.08
82887;BME280;72660;51.258;-2.200;2024-03-02T05:31:44;97859.23;;;5.01;46.31
82887;BME280;72660;51.258;-2.200;2024-03-02T05:34:10;97864.92;;;4.87;46.44
82887;BME280;72660;51.258;-2.200;2024-03-02T05:36:35;97868.20;;;4.86;46.32
82887;BME280;72660;51.258;-2.200;2024-03-02T05:39:01;97867.08;;;5.34;45.89
82887;BME280;72660;51.258;-2.200;2024-03-02T05:41:26;97864.25;;;5.01;46.06
82887;BME280;72660;51.258;-2.200;2024-03-02T05:43:51;97863.72;;;4.96;46.16
82887;BME280;72660;51.258;-2.200;2024-03-02T05:46:17;97868.86;;;5.32;45.76
82887;BME280;72660;51.258;-2.200;2024-03-02T05:48:42;97872.92;;;5.34;45.55
82887;BME280;72660;51.258;-2.200;2024-03-02T05:51:08;97879.02;;;5.23;46.07
82887;BME280;72660;51.258;-2.200;2024-03-02T05:53:36;97881.08;;;4.67;46.71
82887;BME280;72660;51.258;-2.200;2024-03-02T05:55:59;97882.96;;;4.94;46.95
82887;BME280;72660;51.258;-2.200;2024-03-02T05:58:24;97887.81;;;4.73;46.52
82887;BME280;72660;51.258;-2.200;2024-03-02T06:00:50;97893.35;;;4.70;46.81
82887;BME280;72660;51.258;-2.200;2024-03-02T06:03:15;97892.64;;;5.21;46.19
82887;BME280;72660;51.258;-2.200;2024-03-02T06:05:41;97893.70;;;5.28;45.92
82887;BME280;72660;51.258;-2.200;2024-03-02T06:08:06;97892.48;;;5.11;45.97
82887;BME280;72660;51.258;-2.200;2024-03-02T06:10:32;97899.04;;;4.70;46.63
82887;BME280;72660;51.258;-2.200;2024-03-02T06:12:57;97893.17;;;5.06;46.12
82887;BME280;72660;51.258;-2.200;2024-03-02T06:15:22;97899.32;;;4.97;46.39
82887;BME280;72660;51.258;-2.200;2024-03-02T06:17:48;97903.12;;;4.27;47.27
82887;BME280;72660;51.258;-2.200;2024-03-02T06:20:13;97911.61;;;4.42;47.33
82887;BME280;72660;51.258;-2.200;2024-03-02T06:22:39;97918.25;;;4.11;48.38
82887;BME280;72660;51.258;-2.200;2024-03-02T06:25:05;97921.13;;;3.84;48.46
82887;BME280;72660;51.258;-2.200;2024-03-02T06:27:30;97919.11;;;4.34;48.07
82887;BME280;72660;51.258;-2.200;2024-03-02T06:29:55;97921.99;;;4.60;47.74
82887;BME280;72660;51.258;-2.200;2024-03-02T06:32:21;97924.71;;;4.18;48.31
82887;BME280;72660;51.258;-2.200;2024-03-02T06:34:46;97924.40;;;4.52;48.15
82887;BME280;72660;51.258;-2.200;2024-03-02T06:37:12;97928.08;;;3.86;48.88
82887;BME280;72660;51.258;-2.200;2024-03-02T06:39:37;97927.39;;;4.15;48.27
82887;BME280;72660;51.258;-2.200;2024-03-02T06:42:03;97930.31;;;3.99;48.59
82887;BME280;72660;51.258;-2.200;2024-03-02T06:44:28;97932.07;;;4.14;48.45
82887;BME280;72660;51.258;-2.200;2024-03-02T06:46:54;97937.17;;;4.24;48.67
82887;BME280;72660;51.258;-2.200;2024-03-02T06:49:19;97944.48;;;3.66;49.13
82887;BME280;72660;51.258;-2.200;2024-03-02T06:51:45;97947.74;;;4.14;48.44
82887;BME280;72660;51.258;-2.200;2024-03-02T06:54:10;97952.79;;;4.86;47.33
82887;BME280;72660;51.258;-2.200;2024-03-02T06:56:35;97951.36;;;4.34;47.83
82887;BME280;72660;51.258;-2.200;2024-03-02T06:59:01;97956.51;;;4.52;47.31
82887;BME280;72660;51.258;-2.200;2024-03-02T07:01:26;97962.75;;;4.73;47.27
82887;BME280;72660;51.258;-2.200;2024-03-02T07:03:52;97970.47;;;4.51;48.20
82887;BME280;72660;51.258;-2.200;2024-03-02T07:06:17;97976.79;;;4.69;47.59
82887;BME280;72660;51.258;-2.200;2024-03-02T07:08:43;97977.15;;;5.16;47.23
82887;BME280;72660;51.258;-2.200;2024-03-02T07:11:08;97980.16;;;4.76;47.16
82887;BME280;72660;51.258;-2.200;2024-03-02T07:13:34;97983.62;;;5.23;46.86
82887;BME280;72660;51.258;-2.200;2024-03-02T07:15:59;97987.68;;;5.13;46.87
82887;BME280;72660;51.258;-2.200;2024-03-02T07:18:24;97991.35;;;5.13;46.60
82887;BME280;72660;51.258;-2.200;2024-03-02T07:20:50;97991.24;;;4.68;47.34
82887;BME280;72660;51.258;-2.200;2024-03-02T07:23:15;97991.73;;;5.24;46.65
82887;BME280;72660;51.258;-2.200;2024-03-02T07:25:41;97993.98;;;5.64;46.01
82887;BME280;72660;51.258;-2.200;2024-03-02T07:28:06;97994.11;;;5.66;46.16
82887;BME280;72660;51.258;-2.200;2024-03-02T07:30:32;97997.33;;;5.75;45.89
82887;BME280;72660;51.258;-2.200;2024-03-02T07:32:57;98003.11;;;5.46;46.28
82887;BME280;72660;51.258;-2.200;2024-03-02T07:35:23;98002.70;;;5.66;45.82
82887;BME280;72660;51.258;-2.200;2024-03-02T07:37:48;98006.33;;;5.89;45.71
82887;BME280;72660;51.258;-2.200;2024-03-02T07:40:14;98009.15;;;5.49;45.96
82887;BME280;72660;51.258;-2.200;2024-03-02T07:42:40;98014.39;;;5.55;45.59
82887;BME280;72660;51.258;-2.200;2024-03-02T07:45:05;98017.03;;;5.90;45.38
82887;BME280;72660;51.258;-2.200;2024-03-02T07:47:30;98020.99;;;5.62;45.45
82887;BME280;72660;51.258;-2.200;2024-03-02T07:49:55;98025.55;;;5.91;45.62
82887;BME280;72660;51.258;-2.200;2024-03-02T07:52:21;98028.99;;;5.90;45.53
82887;BME280;72660;51.258;-2.200;2024-03-02T07:54:46;98031.32;;;5.91;45.23
82887;BME280;72660;51.258;-2.200;2024-03-02T07:57:11;98035.32;;;6.13;44.96
82887;BME280;72660;51.258;-2.200;2024-03-02T07:59:37;98037.43;;;6.20;44.74
82887;BME280;72660;51.258;-2.200;2024-03-02T08:02:03;98042.29;;;6.33;44.82
82887;BME280;72660;51.258;-2.200;2024-03-02T08:04:28;98047.35;;;6.07;44.87
82887;BME280;72660;51.258;-2.200;2024-03-02T08:06:53;98050.25;;;6.52;44.50
82887;BME280;72660;51.258;-2.200;2024-03-02T08:09:19;98053.80;;;6.23;44.55
82887;BME280;72660;51.258;-2.200;2024-03-02T08:11:44;98052.31;;;6.74;44.11
82887;BME280;72660;51.258;-2.200;2024-03-02T08:14:09;98053.92;;;6.54;44.28
82887;BME280;72660;51.258;-2.200;2024-03-02T08:16:35;98055.57;;;6.45;44.21
82887;BME280;72660;51.258;-2.200;2024-03-02T08:19:00;98060.35;;;6.94;43.97
82887;BME280;72660;51.258;-2.200;2024-03-02T08:21:26;98064.28;;;6.89;43.58
82887;BME280;72660;51.258;-2.200;2024-03-02T08:23:51;98065.70;;;7.05;44.02
82887;BME280;72660;51.258;-2.200;2024-03-02T08:26:17;98065.31;;;7.16;43.69
82887;BME280;72660;51.258;-2.200;2024-03-02T08:28:42;98068.68;;;7.01;43.61
82887;BME280;72660;51.258;-2.200;2024-03-02T08:31:08;98071.32;;;7.10;43.59
82887;BME280;72660;51.258;-2.200;2024-03-02T08:33:33;98073.74;;;7.36;43.09
82887;BME280;72660;51.258;-2.200;2024-03-02T08:35:59;98077.91;;;7.44;42.86
82887;BME280;72660;51.258;-2.200;2024-03-02T08:38:24;98080.92;;;8.10;42.84
82887;BME280;72660;51.258;-2.200;2024-03-02T08:40:49;98084.36;;;7.77;42.52
82887;BME280;72660;51.258;-2.200;2024-03-02T08:43:14;98086.95;;;7.71;42.67
82887;BME280;72660;51.258;-2.200;2024-03-02T08:45:40;98089.26;;;7.72;42.22
82887;BME280;72660;51.258;-2.200;2024-03-02T08:48:06;98091.88;;;8.17;42.15
82887;BME280;72660;51.258;-2.200;2024-03-02T08:50:31;98096.18;;;7.84;41.88
82887;BME280;72660;51.258;-2.200;2024-03-02T08:52:56;98102.96;;;8.00;42.14
82887;BME280;72660;51.258;-2.200;2024-03-02T08:55:26;98103.57;;;7.84;42.26
82887;BME280;72660;51.258;-2.200;2024-03-02T08:57:47;98105.60;;;7.55;42.38
82887;BME280;72660;51.258;-2.200;2024-03-02T09:00:13;98105.33;;;7.39;42.75
82887;BME280;72660;51.258;-2.200;2024-03-02T09:02:38;98106.31;;;7.68;42.59
82887;BME280;72660;51.258;-2.200;2024-03-02T09:05:04;98108.35;;;8.23;42.49
82887;BME280;72660;51.258;-2.200;2024-03-02T09:07:28;98109.57;;;7.72;42.68
82887;BME280;72660;51.258;-2.200;2024-03-02T09:09:54;98109.85;;;7.54;42.62
82887;BME280;72660;51.258;-2.200;2024-03-02T09:12:19;98111.13;;;7.54;42.86
82887;BME280;72660;51.258;-2.200;2024-03-02T09:14:45;98113.23;;;7.88;42.89
82887;BME280;72660;51.258;-2.200;2024-03-02T09:17:10;98119.13;;;7.69;42.80
82887;BME280;72660;51.258;-2.200;2024-03-02T09:19:35;98117.87;;;7.74;43.19
82887;BME280;72660;51.258;-2.200;2024-03-02T09:22:01;98116.58;;;7.69;43.28
82887;BME280;72660;51.258;-2.200;2024-03-02T09:24:26;98121.33;;;7.46;43.46
82887;BME280;72660;51.258;-2.200;2024-03-02T09:26:52;98122.52;;;7.73;43.58
82887;BME280;72660;51.258;-2.200;2024-03-02T09:29:17;98126.94;;;8.06;43.14
82887;BME280;72660;51.258;-2.200;2024-03-02T09:31:43;98128.71;;;7.49;43.78
82887;BME280;72660;51.258;-2.200;2024-03-02T09:34:08;98131.74;;;8.09;43.13
82887;BME280;72660;51.258;-2.200;2024-03-02T09:36:33;98131.95;;;8.00;43.25
82887;BME280;72660;51.258;-2.200;2024-03-02T09:38:58;98131.93;;;8.23;43.13
82887;BME280;72660;51.258;-2.200;2024-03-02T09:41:24;98136.81;;;8.40;42.71
82887;BME280;72660;51.258;-2.200;2024-03-02T09:43:49;98136.25;;;8.62;42.75
82887;BME280;72660;51.258;-2.200;2024-03-02T09:46:15;98140.76;;;8.60;42.74
82887;BME280;72660;51.258;-2.200;2024-03-02T09:48:39;98141.48;;;8.61;42.70
82887;BME280;72660;51.258;-2.200;2024-03-02T09:51:05;98140.62;;;8.64;42.73
82887;BME280;72660;51.258;-2.200;2024-03-02T09:53:32;98141.55;;;8.22;43.17
82887;BME280;72660;51.258;-2.200;2024-03-02T09:55:56;98146.55;;;8.11;43.18
82887;BME280;72660;51.258;-2.200;2024-03-02T09:58:21;98149.81;;;8.80;43.00
82887;BME280;72660;51.258;-2.200;2024-03-02T10:00:46;98152.01;;;8.99;42.81
82887;BME280;72660;51.258;-2.200;2024-03-02T10:03:13;98152.75;;;8.99;42.65
82887;BME280;72660;51.258;-2.200;2024-03-02T10:05:37;98156.47;;;8.58;43.12
82887;BME280;72660;51.258;-2.200;2024-03-02T10:08:03;98158.84;;;8.44;43.26
82887;BME280;72660;51.258;-2.200;2024-03-02T10:10:34;98163.25;;;8.45;43.13
82887;BME280;72660;51.258;-2.200;2024-03-02T10:13:03;98167.84;;;8.24;43.46
82887;BME280;72660;51.258;-2.200;2024-03-02T10:15:24;98170.24;;;7.83;44.45
82887;BME280;72660;51.258;-2.200;2024-03-02T10:17:44;98172.91;;;7.84;44.83
82887;BME280;72660;51.258;-2.200;2024-03-02T10:20:21;98174.43;;;8.36;44.05
82887;BME280;72660;51.258;-2.200;2024-03-02T10:22:35;98179.74;;;7.68;44.83
82887;BME280;72660;51.258;-2.200;2024-03-02T10:25:00;98182.35;;;7.90;44.75
82887;BME280;72660;51.258;-2.200;2024-03-02T10:27:27;98184.11;;;8.05;44.82
82887;BME280;72660;51.258;-2.200;2024-03-02T10:29:51;98186.54;;;8.08;44.44
82887;BME280;72660;51.258;-2.200;2024-03-02T10:32:16;98187.78;;;8.22;44.41
82887;BME280;72660;51.258;-2.200;2024-03-02T10:34:43;98189.60;;;8.71;43.79
82887;BME280;72660;51.258;-2.200;2024-03-02T10:37:07;98193.10;;;9.36;43.20
82887;BME280;72660;51.258;-2.200;2024-03-02T10:39:33;98192.14;;;8.90;43.31
82887;BME280;72660;51.258;-2.200;2024-03-02T10:41:58;98197.15;;;9.09;42.69
82887;BME280;72660;51.258;-2.200;2024-03-02T10:44:23;98200.16;;;8.97;42.72
82887;BME280;72660;51.258;-2.200;2024-03-02T10:46:49;98203.63;;;9.30;42.75
82887;BME280;72660;51.258;-2.200;2024-03-02T10:49:14;98208.73;;;8.73;43.76
82887;BME280;72660;51.258;-2.200;2024-03-02T10:51:39;98209.75;;;9.05;43.64
82887;BME280;72660;51.258;-2.200;2024-03-02T10:54:05;98214.10;;;8.48;44.19
82887;BME280;72660;51.258;-2.200;2024-03-02T10:56:31;98216.22;;;8.81;43.31
82887;BME280;72660;51.258;-2.200;2024-03-02T10:59:02;98216.01;;;9.63;42.66
82887;BME280;72660;51.258;-2.200;2024-03-02T11:01:21;98218.51;;;9.48;42.47
82887;BME280;72660;51.258;-2.200;2024-03-02T11:03:47;98216.93;;;8.39;43.69
82887;BME280;72660;51.258;-2.200;2024-03-02T11:06:12;98220.81;;;9.23;42.85
82887;BME280;72660;51.258;-2.200;2024-03-02T11:08:38;98217.72;;;9.92;41.82
82887;BME280;72660;51.258;-2.200;2024-03-02T11:11:06;98220.30;;;10.11;41.37
82887;BME280;72660;51.258;-2.200;2024-03-02T11:13:31;98220.57;;;10.40;40.71
82887;BME280;72660;51.258;-2.200;2024-03-02T11:15:55;98224.88;;;9.90;40.95
82887;BME280;72660;51.258;-2.200;2024-03-02T11:18:18;98225.98;;;9.99;41.23
82887;BME280;72660;51.258;-2.200;2024-03-02T11:20:44;98224.31;;;10.39;40.93
82887;BME280;72660;51.258;-2.200;2024-03-02T11:23:09;98231.94;;;10.28;41.19
82887;BME280;72660;51.258;-2.200;2024-03-02T11:25:35;98236.17;;;10.50;40.90
82887;BME280;72660;51.258;-2.200;2024-03-02T11:28:02;98236.03;;;10.50;40.87
82887;BME280;72660;51.258;-2.200;2024-03-02T11:32:55;98239.02;;;9.39;42.38
82887;BME280;72660;51.258;-2.200;2024-03-02T11:35:16;98238.40;;;9.49;41.80
82887;BME280;72660;51.258;-2.200;2024-03-02T11:37:41;98241.42;;;9.39;42.29
82887;BME280;72660;51.258;-2.200;2024-03-02T11:40:09;98246.15;;;9.66;42.34
82887;BME280;72660;51.258;-2.200;2024-03-02T11:42:32;98243.19;;;9.01;42.94
82887;BME280;72660;51.258;-2.200;2024-03-02T11:44:57;98241.47;;;8.92;43.27
82887;BME280;72660;51.258;-2.200;2024-03-02T11:47:23;98248.20;;;9.94;42.15
82887;BME280;72660;51.258;-2.200;2024-03-02T11:49:50;98252.06;;;9.79;42.04
82887;BME280;72660;51.258;-2.200;2024-03-02T11:52:14;98244.21;;;10.25;41.05
82887;BME280;72660;51.258;-2.200;2024-03-02T11:54:40;98245.08;;;10.71;40.67
82887;BME280;72660;51.258;-2.200;2024-03-02T11:57:05;98240.22;;;11.22;39.61
82887;BME280;72660;51.258;-2.200;2024-03-02T11:59:30;98243.69;;;11.10;40.17
82887;BME280;72660;51.258;-2.200;2024-03-02T12:01:55;98245.15;;;10.23;40.68
82887;BME280;72660;51.258;-2.200;2024-03-02T12:04:21;98249.86;;;9.50;41.34
82887;BME280;72660;51.258;-2.200;2024-03-02T12:06:46;98253.14;;;9.68;42.36
82887;BME280;72660;51.258;-2.200;2024-03-02T12:09:11;98248.21;;;10.00;41.65
82887;BME280;72660;51.258;-2.200;2024-03-02T12:11:36;98252.57;;;10.06;42.43
82887;BME280;72660;51.258;-2.200;2024-03-02T12:14:02;98256.10;;;9.19;43.60
82887;BME280;72660;51.258;-2.200;2024-03-02T12:16:27;98257.38;;;9.01;43.70
82887;BME280;72660;51.258;-2.200;2024-03-02T12:18:53;98261.01;;;9.49;42.96
82887;BME280;72660;51.258;-2.200;2024-03-02T12:21:18;98263.26;;;10.06;43.33
82887;BME280;72660;51.258;-2.200;2024-03-02T12:23:43;98261.87;;;9.81;44.32
82887;BME280;72660;51.258;-2.200;2024-03-02T12:26:09;98265.23;;;9.68;44.00
82887;BME280;72660;51.258;-2.200;2024-03-02T12:28:34;98265.66;;;9.76;43.96
82887;BME280;72660;51.258;-2.200;2024-03-02T12:30:59;98264.94;;;8.69;45.69
82887;BME280;72660;51.258;-2.200;2024-03-02T12:33:25;98266.21;;;8.13;46.32
82887;BME280;72660;51.258;-2.200;2024-03-02T12:35:50;98266.74;;;8.60;45.72
82887;BME280;72660;51.258;-2.200;2024-03-02T12:38:15;98273.36;;;8.35;46.16
82887;BME280;72660;51.258;-2.200;2024-03-02T12:40:41;98274.33;;;7.61;47.17
82887;BME280;72660;51.258;-2.200;2024-03-02T12:43:06;98279.28;;;7.62;47.75
82887;BME280;72660;51.258;-2.200;2024-03-02T12:45:32;98283.38;;;7.70;47.33
82887;BME280;72660;51.258;-2.200;2024-03-02T12:48:00;98286.57;;;7.21;48.17
82887;BME280;72660;51.258;-2.200;2024-03-02T12:50:23;98292.98;;;7.73;48.55
82887;BME280;72660;51.258;-2.200;2024-03-02T12:52:52;98294.28;;;8.01;48.58
82887;BME280;72660;51.258;-2.200;2024-03-02T12:55:13;98302.23;;;6.88;49.20